Time;durP1;ratioP1;P1;durP2;ratioP2;P2;SDS_P1;SDS_P2;PMS_P1;PMS_P2;Temp;Humidity;BMP_temperature;BMP_pressure;BME280_temperature;BME280_humidity;BME280_pressure;Samples;Min_cycle;Max_cycle;Signal;HPM_P1;HPM_P2
2021/07/17 00:01:45;;;;;;;22.90;17.10;;;17.50;99.90;;;;;;5091075;28;20671;-88
2021/07/17 00:04:14;;;;;;;18.03;15.33;;;17.30;99.90;;;;;;5090481;28;20621;-88
2021/07/17 00:06:42;;;;;;;20.00;16.63;;;17.30;99.90;;;;;;5091165;28;20628;-89
2021/07/17 00:09:10;;;;;;;24.57;16.60;;;17.40;99.90;;;;;;5090948;28;20714;-88
2021/07/17 00:11:38;;;;;;;25.70;17.87;;;17.50;99.90;;;;;;5090760;28;20618;-88
2021/07/17 00:14:06;;;;;;;20.30;18.13;;;17.30;99.90;;;;;;5091255;28;20779;-87
2021/07/17 00:16:34;;;;;;;20.90;16.97;;;17.30;99.90;;;;;;5090340;28;20656;-87
2021/07/17 00:19:01;;;;;;;21.00;17.23;;;17.50;99.90;;;;;;5094252;28;20642;-88
2021/07/17 00:21:29;;;;;;;22.73;19.00;;;17.40;99.90;;;;;;5086132;28;20655;-88
2021/07/17 00:23:56;;;;;;;22.57;16.80;;;17.40;99.90;;;;;;5090729;28;20679;-87
2021/07/17 00:26:23;;;;;;;23.47;17.53;;;17.30;99.90;;;;;;5101090;28;20613;-87
2021/07/17 00:28:50;;;;;;;28.77;18.37;;;17.20;99.90;;;;;;5097085;28;20668;-87
2021/07/17 00:31:18;;;;;;;26.67;20.97;;;17.20;99.90;;;;;;5090601;28;20598;-87
2021/07/17 00:33:45;;;;;;;27.23;18.10;;;17.10;99.90;;;;;;5091016;28;20591;-87
2021/07/17 00:36:12;;;;;;;22.57;17.77;;;17.10;99.90;;;;;;5090288;28;20635;-87
2021/07/17 00:38:39;;;;;;;21.87;17.30;;;17.10;99.90;;;;;;5090203;28;20611;-88
2021/07/17 00:41:06;;;;;;;28.77;18.50;;;17.10;99.90;;;;;;5086027;28;20651;-87
2021/07/17 00:43:34;;;;;;;26.73;19.63;;;17.20;99.90;;;;;;5090552;28;20601;-87
2021/07/17 00:46:01;;;;;;;25.63;18.77;;;17.10;99.90;;;;;;5090046;28;20671;-87
2021/07/17 00:48:30;;;;;;;24.40;19.30;;;17.20;99.90;;;;;;5090390;28;20600;-87
2021/07/17 00:50:57;;;;;;;24.13;18.10;;;17.20;99.90;;;;;;5091727;28;20611;-87
2021/07/17 00:53:24;;;;;;;26.03;19.43;;;17.10;99.90;;;;;;5110962;28;20602;-87
2021/07/17 00:55:52;;;;;;;27.80;18.90;;;17.10;99.90;;;;;;5099427;28;20662;-87
2021/07/17 00:58:24;;;;;;;27.07;20.37;;;17.00;99.90;;;;;;5090140;28;20660;-88
2021/07/17 01:00:52;;;;;;;23.60;18.23;;;17.00;99.90;;;;;;5090180;28;21195;-87
2021/07/17 01:03:21;;;;;;;25.50;17.97;;;17.00;99.90;;;;;;5090097;28;20623;-86
2021/07/17 01:05:51;;;;;;;22.70;17.47;;;17.00;99.90;;;;;;5090284;28;20680;-87
2021/07/17 01:08:21;;;;;;;26.10;17.70;;;16.90;99.90;;;;;;5090552;28;20602;-86
2021/07/17 01:10:51;;;;;;;27.50;19.20;;;16.80;99.90;;;;;;5086912;28;20652;-86
2021/07/17 01:13:19;;;;;;;23.43;18.97;;;16.80;99.90;;;;;;5097130;28;20715;-88
2021/07/17 01:15:50;;;;;;;23.63;16.13;;;16.80;99.90;;;;;;5098793;28;20641;-87
2021/07/17 01:18:20;;;;;;;24.60;18.00;;;16.70;99.90;;;;;;5100733;28;20656;-86
2021/07/17 01:20:51;;;;;;;24.77;19.00;;;16.70;99.90;;;;;;5110825;28;20620;-87
2021/07/17 01:23:22;;;;;;;20.87;17.37;;;16.70;99.90;;;;;;5094951;28;20701;-87
2021/07/17 01:25:50;;;;;;;21.20;17.30;;;16.70;99.90;;;;;;5088678;28;21270;-87
2021/07/17 01:28:18;;;;;;;19.70;17.33;;;16.70;99.90;;;;;;5093760;28;20624;-88
2021/07/17 01:30:45;;;;;;;28.20;20.40;;;16.60;99.90;;;;;;5094239;28;20614;-87
2021/07/17 01:33:14;;;;;;;20.23;18.07;;;16.70;99.90;;;;;;5095432;28;21134;-88
2021/07/17 01:35:44;;;;;;;21.27;17.27;;;16.70;99.90;;;;;;5109521;28;20630;-88
2021/07/17 01:38:11;;;;;;;23.50;17.33;;;16.70;99.90;;;;;;5114589;28;20647;-87
2021/07/17 01:40:41;;;;;;;23.67;18.57;;;16.70;99.90;;;;;;5109444;28;20626;-87
2021/07/17 01:43:11;;;;;;;22.77;18.03;;;16.80;99.90;;;;;;5091749;28;20634;-88
2021/07/17 01:45:39;;;;;;;25.80;18.80;;;16.70;99.90;;;;;;5093553;28;20620;-87
2021/07/17 01:48:09;;;;;;;25.83;18.50;;;16.70;99.90;;;;;;5093666;28;20618;-87
2021/07/17 01:50:38;;;;;;;23.50;17.53;;;16.70;99.90;;;;;;5093581;28;20632;-86
2021/07/17 01:53:08;;;;;;;28.33;18.70;;;16.70;99.90;;;;;;5088931;28;20656;-88
2021/07/17 01:55:37;;;;;;;26.90;19.50;;;16.60;99.90;;;;;;5093486;28;21234;-87
2021/07/17 01:58:08;;;;;;;27.33;18.67;;;16.70;99.90;;;;;;5093227;28;20628;-87
2021/07/17 02:00:45;;;;;;;23.40;18.20;;;16.60;99.90;;;;;;5093376;28;20624;-88
2021/07/17 02:03:14;;;;;;;33.83;21.00;;;16.60;99.90;;;;;;5092435;28;21489;-88
2021/07/17 02:05:42;;;;;;;29.87;19.57;;;16.70;99.90;;;;;;5092558;28;20621;-87
2021/07/17 02:08:13;;;;;;;21.43;16.60;;;16.70;99.90;;;;;;5093272;28;20620;-87
2021/07/17 02:10:43;;;;;;;22.50;17.13;;;16.70;99.90;;;;;;5090692;28;20608;-85
2021/07/17 02:13:14;;;;;;;20.93;16.40;;;16.70;99.90;;;;;;5090997;28;20652;-86
2021/07/17 02:15:44;;;;;;;26.20;20.80;;;16.80;99.90;;;;;;5092861;28;20713;-86
2021/07/17 02:18:13;;;;;;;22.60;19.53;;;16.80;99.90;;;;;;5093100;28;20727;-87
2021/07/17 02:20:42;;;;;;;21.10;18.20;;;16.80;99.90;;;;;;5092996;28;20669;-86
2021/07/17 02:23:10;;;;;;;24.80;17.67;;;16.70;99.90;;;;;;5092100;28;20632;-86
2021/07/17 02:25:39;;;;;;;24.30;18.07;;;16.70;99.90;;;;;;5097518;28;20675;-86
2021/07/17 02:28:07;;;;;;;22.33;18.67;;;16.70;99.90;;;;;;5098171;28;20652;-87
2021/07/17 02:30:36;;;;;;;24.00;18.67;;;16.60;99.90;;;;;;5093321;28;20748;-86
2021/07/17 02:33:05;;;;;;;26.70;19.07;;;16.60;99.90;;;;;;5093307;28;20627;-87
2021/07/17 02:35:32;;;;;;;22.87;17.47;;;16.60;99.90;;;;;;5092029;28;20707;-87
2021/07/17 02:38:00;;;;;;;25.27;19.00;;;16.70;99.90;;;;;;5092519;28;21015;-86
2021/07/17 02:40:27;;;;;;;23.30;17.57;;;16.70;99.90;;;;;;5092468;28;21360;-87
2021/07/17 02:42:56;;;;;;;27.37;19.73;;;16.70;99.90;;;;;;5092733;28;20637;-88
2021/07/17 02:45:24;;;;;;;25.30;17.87;;;16.60;99.90;;;;;;5092648;28;21023;-87
2021/07/17 02:47:53;;;;;;;27.10;18.27;;;16.60;99.90;;;;;;5093676;28;20621;-87
2021/07/17 02:50:21;;;;;;;21.30;18.37;;;16.60;99.90;;;;;;5100786;28;20612;-87
2021/07/17 02:52:49;;;;;;;24.00;19.30;;;16.60;99.90;;;;;;5092420;28;20663;-87
2021/07/17 02:55:17;;;;;;;26.03;19.77;;;16.70;99.90;;;;;;5092440;28;20625;-87
2021/07/17 02:57:45;;;;;;;34.33;20.93;;;16.70;99.90;;;;;;5092422;28;20658;-86
2021/07/17 03:00:14;;;;;;;24.07;19.00;;;16.70;99.90;;;;;;5092434;28;20614;-88
2021/07/17 03:02:43;;;;;;;23.30;17.10;;;16.70;99.90;;;;;;5091895;28;20616;-88
2021/07/17 03:05:13;;;;;;;25.27;19.27;;;16.70;99.90;;;;;;5092243;28;20602;-88
2021/07/17 03:07:40;;;;;;;24.93;19.30;;;16.80;99.90;;;;;;5091925;28;20622;-86
2021/07/17 03:10:08;;;;;;;31.93;19.70;;;16.70;99.90;;;;;;5091924;28;20645;-87
2021/07/17 03:12:36;;;;;;;28.23;20.60;;;16.60;99.90;;;;;;5088327;28;20631;-88
2021/07/17 03:15:04;;;;;;;23.57;19.63;;;16.70;99.90;;;;;;5091713;28;20618;-88
2021/07/17 03:17:32;;;;;;;27.70;19.57;;;16.70;99.90;;;;;;5091978;28;21217;-88
2021/07/17 03:20:00;;;;;;;26.50;19.10;;;16.60;99.90;;;;;;5091732;28;20615;-89
2021/07/17 03:22:28;;;;;;;24.30;19.75;;;16.60;99.90;;;;;;5091384;28;20742;-88
2021/07/17 03:24:55;;;;;;;29.67;20.33;;;16.60;99.90;;;;;;5091593;28;20563;-88
2021/07/17 03:27:22;;;;;;;27.87;19.17;;;16.60;99.90;;;;;;5107732;28;20756;-88
2021/07/17 03:29:49;;;;;;;25.20;18.20;;;16.70;99.90;;;;;;5112779;28;20608;-87
2021/07/17 03:32:22;;;;;;;24.40;19.30;;;16.60;99.90;;;;;;5094756;28;20683;-89
2021/07/17 03:34:49;;;;;;;25.53;19.53;;;16.70;99.90;;;;;;5091270;28;20617;-88
2021/07/17 03:37:16;;;;;;;23.30;19.57;;;16.80;99.90;;;;;;5091825;28;20852;-88
2021/07/17 03:39:46;;;;;;;27.80;18.50;;;16.60;99.90;;;;;;5091904;28;21191;-87
2021/07/17 03:42:17;;;;;;;27.80;18.70;;;16.60;99.90;;;;;;5087281;28;20644;-87
2021/07/17 03:44:46;;;;;;;21.73;17.87;;;16.50;99.90;;;;;;5090965;28;20617;-88
2021/07/17 03:47:15;;;;;;;26.63;19.13;;;16.50;99.90;;;;;;5091440;28;20606;-88
2021/07/17 03:49:43;;;;;;;29.63;19.90;;;16.60;99.90;;;;;;5091863;28;20623;-89
2021/07/17 03:52:11;;;;;;;24.30;18.43;;;16.50;99.90;;;;;;5102590;28;20621;-88
2021/07/17 03:54:39;;;;;;;25.77;18.17;;;16.60;99.90;;;;;;5111614;28;21062;-88
2021/07/17 03:57:08;;;;;;;25.20;18.63;;;16.70;99.90;;;;;;5110630;28;20645;-89
2021/07/17 03:59:37;;;;;;;27.50;20.10;;;16.60;99.90;;;;;;5092417;28;20626;-87
2021/07/17 04:02:04;;;;;;;27.73;20.40;;;16.70;99.90;;;;;;5093742;28;20716;-88
2021/07/17 04:04:38;;;;;;;23.63;18.97;;;16.70;99.90;;;;;;5091210;28;20624;-88
2021/07/17 04:07:06;;;;;;;23.13;18.90;;;16.60;99.90;;;;;;5091359;28;20624;-89
2021/07/17 04:09:35;;;;;;;24.33;18.17;;;16.50;99.90;;;;;;5091185;28;21129;-88
2021/07/17 04:12:03;;;;;;;22.97;17.70;;;16.60;99.90;;;;;;5089557;28;20621;-87
2021/07/17 04:14:32;;;;;;;27.93;18.90;;;16.70;99.90;;;;;;5086607;28;20622;-87
2021/07/17 04:17:00;;;;;;;23.37;18.77;;;16.70;99.90;;;;;;5090697;28;20630;-87
2021/07/17 04:19:28;;;;;;;27.07;19.73;;;16.70;99.90;;;;;;5090915;28;21192;-87
2021/07/17 04:21:55;;;;;;;24.40;18.80;;;16.60;99.90;;;;;;5091064;28;20622;-88
2021/07/17 04:24:22;;;;;;;28.37;19.63;;;16.70;99.90;;;;;;5090305;28;21148;-89
2021/07/17 04:26:49;;;;;;;29.20;20.83;;;16.80;99.90;;;;;;5095679;28;20641;-89
2021/07/17 04:29:16;;;;;;;25.20;18.90;;;16.70;99.90;;;;;;5087212;28;20740;-89
2021/07/17 04:31:44;;;;;;;23.17;18.73;;;16.60;99.90;;;;;;5091003;28;20629;-88
2021/07/17 04:34:11;;;;;;;24.03;19.20;;;16.60;99.90;;;;;;5090824;28;20626;-88
2021/07/17 04:36:40;;;;;;;22.03;17.60;;;16.60;99.90;;;;;;5090598;28;20625;-89
2021/07/17 04:39:07;;;;;;;28.27;18.87;;;16.60;99.90;;;;;;5090444;28;20651;-89
2021/07/17 04:41:34;;;;;;;22.87;19.40;;;16.80;99.90;;;;;;5091183;28;20620;-89
2021/07/17 04:44:01;;;;;;;24.10;18.13;;;16.80;99.90;;;;;;5086611;28;20758;-88
2021/07/17 04:46:31;;;;;;;23.50;17.13;;;16.80;99.90;;;;;;5092365;28;20712;-89
2021/07/17 04:48:59;;;;;;;25.37;19.40;;;16.80;99.90;;;;;;5094706;28;20619;-88
2021/07/17 04:51:27;;;;;;;23.80;17.60;;;16.90;99.90;;;;;;5099867;28;20633;-88
2021/07/17 04:53:54;;;;;;;26.67;19.23;;;16.90;99.90;;;;;;5115398;28;20617;-88
2021/07/17 04:56:21;;;;;;;22.70;17.77;;;16.70;99.90;;;;;;5109885;28;20621;-88
2021/07/17 04:58:48;;;;;;;28.97;19.10;;;16.70;99.90;;;;;;5090416;28;20659;-86
2021/07/17 05:01:15;;;;;;;26.63;20.13;;;16.80;99.90;;;;;;5094656;28;20613;-88
2021/07/17 05:03:42;;;;;;;26.37;20.07;;;16.60;99.90;;;;;;5094357;28;20675;-88
2021/07/17 05:06:10;;;;;;;23.03;17.73;;;16.70;99.90;;;;;;5093655;28;21153;-87
2021/07/17 05:08:37;;;;;;;22.97;18.30;;;16.70;99.90;;;;;;5094895;28;20961;-88
2021/07/17 05:11:04;;;;;;;24.03;18.20;;;16.60;99.90;;;;;;5094769;28;20626;-87
2021/07/17 05:13:31;;;;;;;20.53;17.57;;;16.60;99.90;;;;;;5090876;28;20999;-86
2021/07/17 05:15:58;;;;;;;23.63;18.73;;;16.70;99.90;;;;;;5097836;28;21008;-87
2021/07/17 05:18:25;;;;;;;23.17;18.00;;;16.70;99.90;;;;;;5094555;28;20672;-88
2021/07/17 05:20:52;;;;;;;22.37;18.57;;;16.70;99.90;;;;;;5094295;28;21017;-88
2021/07/17 05:23:21;;;;;;;22.03;18.40;;;16.70;99.90;;;;;;5094336;28;20628;-88
2021/07/17 05:25:50;;;;;;;20.87;18.20;;;16.80;99.90;;;;;;5099793;28;20637;-88
2021/07/17 05:28:17;;;;;;;19.07;16.60;;;16.80;99.90;;;;;;5095564;28;21236;-88
2021/07/17 05:30:44;;;;;;;27.50;18.13;;;16.90;99.90;;;;;;5092494;28;20621;-88
2021/07/17 05:33:11;;;;;;;24.40;18.67;;;16.90;99.90;;;;;;5093808;28;20611;-88
2021/07/17 05:35:38;;;;;;;22.10;16.07;;;16.90;99.90;;;;;;5093711;28;20631;-88
2021/07/17 05:38:06;;;;;;;22.03;16.90;;;16.90;99.90;;;;;;5115237;28;20652;-88
2021/07/17 05:40:35;;;;;;;19.97;16.47;;;16.90;99.90;;;;;;5114677;28;20653;-88
2021/07/17 05:43:02;;;;;;;24.30;18.50;;;17.00;99.90;;;;;;5113187;28;20633;-88
2021/07/17 05:45:29;;;;;;;21.97;16.97;;;17.00;99.90;;;;;;5094233;28;20623;-88
2021/07/17 05:47:56;;;;;;;26.63;17.73;;;17.10;99.90;;;;;;5093542;28;21071;-88
2021/07/17 05:50:23;;;;;;;22.83;17.13;;;17.00;99.90;;;;;;5094281;28;20614;-88
2021/07/17 05:52:50;;;;;;;21.30;16.60;;;17.00;99.90;;;;;;5110276;28;20607;-87
2021/07/17 05:55:17;;;;;;;21.57;17.47;;;17.10;99.90;;;;;;5097418;28;20630;-88
2021/07/17 05:57:46;;;;;;;22.17;16.73;;;17.10;99.90;;;;;;5092385;28;20621;-88
2021/07/17 06:00:19;;;;;;;18.43;15.40;;;17.00;99.90;;;;;;5093134;28;20611;-88
2021/07/17 06:02:46;;;;;;;21.60;16.60;;;17.10;99.90;;;;;;5091948;28;20625;-89
2021/07/17 06:05:13;;;;;;;24.80;17.70;;;17.10;99.90;;;;;;5089451;28;20634;-91
2021/07/17 06:07:40;;;;;;;17.37;15.03;;;17.10;99.90;;;;;;5092900;28;20631;-90
2021/07/17 06:10:10;;;;;;;19.73;16.20;;;17.00;99.90;;;;;;5092385;28;20634;-89
2021/07/17 06:12:40;;;;;;;21.47;16.60;;;17.20;99.90;;;;;;5092343;28;20625;-89
2021/07/17 06:15:09;;;;;;;22.87;16.70;;;17.20;99.90;;;;;;5091894;28;20651;-89
2021/07/17 06:17:36;;;;;;;19.00;17.00;;;17.20;99.90;;;;;;5093186;28;20625;-90
2021/07/17 06:20:07;;;;;;;19.73;16.03;;;17.20;99.90;;;;;;5092944;28;20714;-89
2021/07/17 06:22:34;;;;;;;17.77;15.87;;;17.20;99.90;;;;;;5093169;28;20627;-90
2021/07/17 06:25:02;;;;;;;19.60;16.50;;;17.20;99.90;;;;;;5092165;28;20650;-89
2021/07/17 06:27:29;;;;;;;17.93;15.40;;;17.30;99.90;;;;;;5105326;28;20640;-89
2021/07/17 06:29:58;;;;;;;24.40;16.20;;;17.30;99.90;;;;;;5094626;28;20718;-90
2021/07/17 06:32:26;;;;;;;20.60;16.67;;;17.30;99.90;;;;;;5092982;28;20638;-90
2021/07/17 06:34:53;;;;;;;18.93;15.23;;;17.30;99.90;;;;;;5092053;28;21051;-88
2021/07/17 06:37:20;;;;;;;19.00;16.97;;;17.30;99.90;;;;;;5092221;28;20642;-89
2021/07/17 06:39:47;;;;;;;20.93;15.47;;;17.20;99.90;;;;;;5092101;28;20653;-89
2021/07/17 06:42:14;;;;;;;20.53;16.43;;;17.10;99.90;;;;;;5089872;28;20623;-89
2021/07/17 06:44:41;;;;;;;21.25;18.15;;;17.00;99.90;;;;;;5099983;28;21558;-88
2021/07/17 06:47:09;;;;;;;19.33;17.13;;;17.10;99.90;;;;;;5094547;28;20223;-89
2021/07/17 06:49:37;;;;;;;21.50;17.63;;;17.20;99.90;;;;;;5096694;28;20628;-89
2021/07/17 06:52:06;;;;;;;24.08;18.15;;;17.10;99.90;;;;;;5103743;28;20750;-89
2021/07/17 06:54:34;;;;;;;21.88;18.02;;;17.20;99.90;;;;;;5101884;28;20745;-88
2021/07/17 06:57:02;;;;;;;23.10;19.08;;;17.20;99.90;;;;;;5091114;28;20725;-89
2021/07/17 06:59:29;;;;;;;20.13;17.70;;;17.20;99.90;;;;;;5102792;28;20230;-88
2021/07/17 07:01:56;;;;;;;21.97;17.30;;;17.40;99.90;;;;;;5092342;28;20608;-88
2021/07/17 07:04:23;;;;;;;22.33;17.40;;;17.30;99.90;;;;;;5091812;28;21187;-90
2021/07/17 07:06:52;;;;;;;20.90;17.20;;;17.40;99.90;;;;;;5089109;28;20713;-89
2021/07/17 07:09:19;;;;;;;20.23;16.33;;;17.40;99.90;;;;;;5080752;28;20608;-89
2021/07/17 07:11:46;;;;;;;20.90;15.53;;;17.50;99.90;;;;;;5091641;28;21052;-89
2021/07/17 07:14:13;;;;;;;21.70;16.97;;;17.60;99.90;;;;;;5091074;28;20628;-88
2021/07/17 07:16:40;;;;;;;20.40;16.17;;;17.60;99.90;;;;;;5091222;28;20624;-88
2021/07/17 07:19:07;;;;;;;21.83;17.10;;;17.70;99.90;;;;;;5091414;28;20647;-88
2021/07/17 07:21:34;;;;;;;22.43;17.53;;;17.60;99.90;;;;;;5091936;28;20976;-88
2021/07/17 07:24:03;;;;;;;22.57;18.00;;;17.60;99.90;;;;;;5091478;28;20636;-87
2021/07/17 07:26:30;;;;;;;25.30;18.53;;;17.70;99.90;;;;;;5104128;28;20637;-88
2021/07/17 07:28:58;;;;;;;23.80;17.23;;;17.70;99.90;;;;;;5111882;28;20678;-88
2021/07/17 07:31:26;;;;;;;26.20;16.07;;;17.70;99.90;;;;;;5112290;28;20611;-89
2021/07/17 07:33:54;;;;;;;20.80;14.60;;;17.70;99.90;;;;;;5109591;28;21198;-88
2021/07/17 07:36:21;;;;;;;17.53;14.93;;;17.70;99.90;;;;;;5088629;28;20620;-88
2021/07/17 07:41:39;;;;;;;17.30;15.43;;;17.80;99.90;;;;;;5078696;28;20963;-88
2021/07/17 07:44:06;;;;;;;18.83;15.10;;;17.80;99.90;;;;;;5090121;28;20665;-88
2021/07/17 07:46:34;;;;;;;18.17;15.47;;;17.90;99.90;;;;;;5091489;28;20608;-89
2021/07/17 07:49:02;;;;;;;21.27;15.83;;;17.80;99.90;;;;;;5084080;28;20716;-88
2021/07/17 07:51:29;;;;;;;18.63;15.47;;;17.80;99.90;;;;;;5094069;28;21203;-87
2021/07/17 07:53:56;;;;;;;19.47;16.53;;;17.80;99.90;;;;;;5091119;28;20620;-88
2021/07/17 07:56:23;;;;;;;18.20;16.27;;;17.80;99.90;;;;;;5090914;28;21162;-88
2021/07/17 07:58:51;;;;;;;19.37;16.87;;;17.80;99.90;;;;;;5089738;28;20639;-89
2021/07/17 08:01:19;;;;;;;20.93;15.63;;;17.80;99.90;;;;;;5089545;28;20676;-88
2021/07/17 08:03:46;;;;;;;20.10;17.30;;;17.80;99.90;;;;;;5091168;28;20596;-88
2021/07/17 08:06:13;;;;;;;21.17;16.40;;;17.70;99.90;;;;;;5088576;28;20727;-88
2021/07/17 08:08:40;;;;;;;21.70;16.40;;;17.80;99.90;;;;;;5090668;28;21270;-89
2021/07/17 08:11:07;;;;;;;18.73;15.37;;;17.90;99.90;;;;;;5091030;28;20616;-89
2021/07/17 08:13:34;;;;;;;20.90;16.00;;;17.90;99.90;;;;;;5091249;28;20600;-88
2021/07/17 08:16:02;;;;;;;21.57;15.90;;;17.80;99.90;;;;;;5090387;28;20609;-88
2021/07/17 08:18:30;;;;;;;23.77;17.47;;;17.80;99.90;;;;;;5091194;28;20617;-89
2021/07/17 08:20:57;;;;;;;25.00;18.97;;;17.90;99.90;;;;;;5090984;28;20600;-88
2021/07/17 08:23:25;;;;;;;19.97;17.83;;;17.80;99.90;;;;;;5091227;28;21168;-87
2021/07/17 08:25:52;;;;;;;19.50;16.50;;;17.70;99.90;;;;;;5097569;28;20607;-88
2021/07/17 08:28:20;;;;;;;22.10;17.80;;;17.60;99.90;;;;;;5111174;28;20604;-88
2021/07/17 08:30:47;;;;;;;26.73;20.00;;;17.70;99.90;;;;;;5110994;28;20607;-87
2021/07/17 08:33:15;;;;;;;21.27;17.70;;;17.80;99.90;;;;;;5111337;28;20607;-87
2021/07/17 08:35:42;;;;;;;28.67;18.43;;;17.70;99.90;;;;;;5095132;28;20634;-87
2021/07/17 08:38:09;;;;;;;23.47;18.60;;;17.60;99.90;;;;;;5090736;28;20945;-87
2021/07/17 08:40:36;;;;;;;29.70;20.20;;;17.60;99.90;;;;;;5090489;28;20652;-87
2021/07/17 08:43:03;;;;;;;22.27;18.73;;;17.60;99.90;;;;;;5090376;28;20616;-87
2021/07/17 08:45:30;;;;;;;21.53;18.40;;;17.60;99.90;;;;;;5089934;28;21053;-87
2021/07/17 08:47:58;;;;;;;26.30;20.00;;;17.60;99.90;;;;;;5090724;28;20940;-87
2021/07/17 08:50:30;;;;;;;23.60;18.80;;;17.70;99.90;;;;;;5090345;28;20612;-87
2021/07/17 08:52:59;;;;;;;32.00;20.53;;;17.70;99.90;;;;;;5094631;28;20622;-88
2021/07/17 08:55:27;;;;;;;29.77;20.53;;;17.80;99.90;;;;;;5097496;28;20726;-87
2021/07/17 08:57:55;;;;;;;25.70;20.27;;;17.80;99.90;;;;;;5090211;28;20628;-88
2021/07/17 09:00:25;;;;;;;29.90;20.80;;;17.90;99.90;;;;;;5090642;28;20721;-88
2021/07/17 09:02:55;;;;;;;27.00;18.93;;;17.70;99.90;;;;;;5090756;28;21169;-87
2021/07/17 09:05:25;;;;;;;29.77;21.00;;;17.70;99.90;;;;;;5090038;28;20677;-87
2021/07/17 09:07:54;;;;;;;26.50;19.10;;;17.80;99.90;;;;;;5089666;28;20600;-88
2021/07/17 09:10:34;;;;;;;23.20;19.93;;;17.80;99.90;;;;;;5090116;28;20658;-87
2021/07/17 09:13:12;;;;;;;23.80;20.50;;;18.00;99.90;;;;;;5090745;28;20607;-88
2021/07/17 09:15:40;;;;;;;22.70;18.90;;;18.10;99.90;;;;;;5090182;28;20655;-87
2021/07/17 09:18:08;;;;;;;21.70;18.30;;;18.40;99.90;;;;;;5090807;28;20615;-88
2021/07/17 09:20:36;;;;;;;24.27;19.80;;;18.60;99.90;;;;;;5089968;28;20738;-88
2021/07/17 09:23:06;;;;;;;25.90;19.57;;;18.90;99.90;;;;;;5090286;28;21323;-87
2021/07/17 09:25:42;;;;;;;24.83;18.43;;;19.00;99.90;;;;;;5094217;28;20654;-87
2021/07/17 09:28:16;;;;;;;21.17;16.60;;;18.80;99.90;;;;;;5110854;28;20623;-87
2021/07/17 09:30:44;;;;;;;29.03;18.40;;;18.70;99.90;;;;;;5110736;28;20607;-87
2021/07/17 09:33:11;;;;;;;20.10;17.97;;;18.60;99.90;;;;;;5115150;28;20630;-86
2021/07/17 09:35:42;;;;;;;20.03;17.27;;;18.50;99.90;;;;;;5101505;28;20628;-87
2021/07/17 09:38:12;;;;;;;22.93;16.57;;;18.60;99.90;;;;;;5094022;28;20632;-87
2021/07/17 09:40:44;;;;;;;22.63;17.93;;;18.50;99.90;;;;;;5093810;28;20798;-87
2021/07/17 09:43:11;;;;;;;20.77;17.67;;;18.60;99.90;;;;;;5093602;28;20969;-87
2021/07/17 09:45:40;;;;;;;19.47;16.73;;;18.60;99.90;;;;;;5092543;28;20966;-87
2021/07/17 09:48:39;;;;;;;22.03;17.57;;;18.60;99.90;;;;;;5093589;28;20616;-86
2021/07/17 09:51:09;;;;;;;19.73;15.10;;;18.80;99.90;;;;;;5093190;28;20608;-87
2021/07/17 09:53:43;;;;;;;19.43;17.53;;;18.80;99.90;;;;;;5093304;28;21168;-87
2021/07/17 09:56:13;;;;;;;19.70;16.60;;;18.90;99.90;;;;;;5092739;28;20680;-86
2021/07/17 09:58:41;;;;;;;21.07;17.07;;;19.00;99.90;;;;;;5093594;28;20609;-87
2021/07/17 10:01:33;;;;;;;20.63;16.20;;;18.80;99.90;;;;;;5093388;28;20681;-86
2021/07/17 10:04:03;;;;;;;20.93;16.60;;;18.70;99.90;;;;;;5093256;28;21022;-86
2021/07/17 10:06:42;;;;;;;24.83;16.60;;;18.60;99.90;;;;;;5093143;28;20623;-88
2021/07/17 10:09:28;;;;;;;21.83;18.10;;;18.50;99.90;;;;;;5093515;28;20926;-87
2021/07/17 10:11:58;;;;;;;18.33;15.80;;;18.50;99.90;;;;;;5091645;28;21432;-88
2021/07/17 10:14:27;;;;;;;18.10;15.87;;;18.50;99.90;;;;;;5093004;28;20659;-88
2021/07/17 10:16:58;;;;;;;21.60;17.40;;;18.50;99.90;;;;;;5093411;28;20630;-87
2021/07/17 10:19:27;;;;;;;18.50;16.20;;;18.50;99.90;;;;;;5093247;28;21104;-87
2021/07/17 10:21:55;;;;;;;21.43;16.77;;;18.50;99.90;;;;;;5093525;28;20643;-87
2021/07/17 10:24:24;;;;;;;20.73;17.63;;;18.70;99.90;;;;;;5092505;28;20624;-88
2021/07/17 10:26:54;;;;;;;27.57;17.17;;;18.80;99.90;;;;;;5103545;28;20607;-87
2021/07/17 10:29:24;;;;;;;18.70;16.60;;;19.10;99.90;;;;;;5113347;28;21152;-87
2021/07/17 10:31:53;;;;;;;19.70;17.70;;;19.30;99.90;;;;;;5113800;28;20733;-87
2021/07/17 10:34:21;;;;;;;28.20;17.57;;;19.30;99.90;;;;;;5113061;28;21199;-87
2021/07/17 10:36:55;;;;;;;21.23;18.57;;;19.40;99.90;;;;;;5092264;28;20716;-87
2021/07/17 10:39:25;;;;;;;19.30;17.30;;;19.50;99.90;;;;;;5093089;28;20653;-87
2021/07/17 10:41:54;;;;;;;18.40;16.50;;;19.50;99.90;;;;;;5093180;28;20648;-88
2021/07/17 10:44:41;;;;;;;24.50;18.07;;;19.50;99.90;;;;;;5087095;28;21235;-88
2021/07/17 10:47:09;;;;;;;18.87;16.70;;;19.50;99.90;;;;;;5087721;28;20713;-87
2021/07/17 10:49:39;;;;;;;21.17;17.73;;;19.50;99.90;;;;;;5092577;28;20612;-88
2021/07/17 10:52:07;;;;;;;21.23;17.00;;;19.40;99.90;;;;;;5093486;28;20611;-89
2021/07/17 10:54:35;;;;;;;23.63;21.17;;;19.50;99.90;;;;;;5111228;28;20621;-88
2021/07/17 10:57:04;;;;;;;22.67;17.00;;;19.60;99.90;;;;;;5092939;28;20695;-88
2021/07/17 10:59:49;;;;;;;22.07;18.40;;;19.50;99.90;;;;;;5092339;28;20648;-87
2021/07/17 11:02:24;;;;;;;20.20;16.90;;;19.50;99.90;;;;;;5092251;28;20624;-88
2021/07/17 11:04:55;;;;;;;21.50;15.63;;;19.40;99.90;;;;;;5091960;28;20638;-88
2021/07/17 11:07:42;;;;;;;23.00;16.87;;;19.50;99.90;;;;;;5092197;28;20612;-88
2021/07/17 11:10:15;;;;;;;19.20;15.83;;;19.50;99.90;;;;;;5091326;28;20605;-86
2021/07/17 11:12:57;;;;;;;20.20;17.60;;;19.50;99.90;;;;;;5092384;28;20604;-89
2021/07/17 11:15:51;;;;;;;19.47;17.27;;;19.60;99.90;;;;;;5096223;27;20856;-88
2021/07/17 11:18:40;;;;;;;19.57;16.03;;;19.60;99.90;;;;;;5064462;28;21190;-87
2021/07/17 11:21:22;;;;;;;17.90;16.10;;;19.50;99.90;;;;;;5064143;28;20632;-88
2021/07/17 11:23:49;;;;;;;28.73;17.97;;;19.50;99.90;;;;;;5064365;28;20606;-87
2021/07/17 11:26:22;;;;;;;18.40;16.43;;;19.60;99.90;;;;;;5063975;27;20621;-88
2021/07/17 11:28:57;;;;;;;19.27;17.30;;;19.50;99.90;;;;;;5065411;28;20614;-88
2021/07/17 11:31:50;;;;;;;18.63;14.70;;;19.60;99.90;;;;;;5066006;28;20631;-88
2021/07/17 11:34:41;;;;;;;18.97;16.97;;;19.60;99.90;;;;;;5063788;28;20694;-87
2021/07/17 11:37:12;;;;;;;17.43;15.60;;;19.60;99.90;;;;;;5044165;28;20611;-87
2021/07/17 11:39:41;;;;;;;20.43;17.10;;;19.50;99.90;;;;;;5043961;28;20710;-87
2021/07/17 11:42:11;;;;;;;19.07;17.30;;;19.60;99.90;;;;;;5043830;28;20619;-88
2021/07/17 11:44:40;;;;;;;22.17;16.87;;;19.60;99.90;;;;;;5055370;28;20680;-88
2021/07/17 11:47:11;;;;;;;20.33;18.23;;;19.70;99.90;;;;;;5063899;28;20636;-87
2021/07/17 11:49:39;;;;;;;17.87;16.10;;;19.70;99.90;;;;;;5063433;28;20631;-86
2021/07/17 11:52:08;;;;;;;18.20;15.73;;;19.80;99.90;;;;;;5110858;27;20598;-87
2021/07/17 11:54:38;;;;;;;21.03;16.70;;;19.80;99.90;;;;;;5167674;27;21038;-88
2021/07/17 11:57:09;;;;;;;17.77;15.93;;;19.70;99.90;;;;;;5044353;28;20711;-87
2021/07/17 11:59:37;;;;;;;19.57;15.70;;;19.80;99.90;;;;;;5043847;28;20634;-87
2021/07/17 12:02:11;;;;;;;19.90;15.97;;;19.90;99.90;;;;;;5049213;28;20678;-87
2021/07/17 12:04:42;;;;;;;19.73;16.03;;;20.10;99.90;;;;;;5053165;28;20626;-88
2021/07/17 12:07:11;;;;;;;18.17;16.23;;;20.20;99.90;;;;;;5043294;28;20624;-88
2021/07/17 12:09:41;;;;;;;16.13;14.43;;;20.30;99.90;;;;;;5042829;28;21259;-89
2021/07/17 12:12:19;;;;;;;17.93;15.30;;;20.40;99.90;;;;;;5043685;28;20977;-88
2021/07/17 12:14:48;;;;;;;18.70;15.70;;;20.40;99.90;;;;;;5044001;28;21004;-85
2021/07/17 12:17:22;;;;;;;16.30;14.73;;;20.40;99.90;;;;;;5063202;27;20631;-88
2021/07/17 12:20:02;;;;;;;18.00;16.13;;;20.50;99.90;;;;;;5063394;27;20626;-87
2021/07/17 12:22:30;;;;;;;18.40;14.93;;;20.50;99.90;;;;;;5063328;28;20616;-86
2021/07/17 12:25:09;;;;;;;18.37;15.77;;;20.40;99.90;;;;;;5061081;27;20707;-88
2021/07/17 12:27:56;;;;;;;16.30;14.70;;;20.40;99.90;;;;;;5030035;28;20681;-90
2021/07/17 12:30:26;;;;;;;18.73;14.30;;;20.50;99.90;;;;;;5029730;28;20723;-88
2021/07/17 12:33:09;;;;;;;16.87;15.27;;;20.90;99.90;;;;;;5029907;27;20687;-88
2021/07/17 12:35:39;;;;;;;16.73;14.90;;;21.30;99.90;;;;;;5036826;28;20700;-90
2021/07/17 12:38:27;;;;;;;17.53;15.47;;;21.50;99.90;;;;;;5050584;28;20719;-89
2021/07/17 12:40:59;;;;;;;19.53;15.33;;;21.90;99.90;;;;;;5040991;28;21278;-88
2021/07/17 12:43:34;;;;;;;17.30;14.57;;;21.70;99.90;;;;;;5061552;28;20629;-90